Time;durP1;ratioP1;P1;durP2;ratioP2;P2;SDS_P1;SDS_P2;PMS_P1;PMS_P2;Temp;Humidity;BMP_temperature;BMP_pressure;BME280_temperature;BME280_humidity;BME280_pressure;Samples;Min_cycle;Max_cycle;Signal;HPM_P1;HPM_P2
2024/02/01 00:01:10;;;;;;;8.85;7.25;;;;;;;9.42;69.96;97777.38;4993598;28;20045;-80
2024/02/01 00:03:38;;;;;;;12.90;7.30;;;;;;;9.42;69.70;97772.19;4993714;28;20057;-80
2024/02/01 00:06:06;;;;;;;14.90;8.35;;;;;;;9.41;69.48;97777.53;4993385;28;20491;-80
2024/02/01 00:08:34;;;;;;;11.73;6.80;;;;;;;9.41;69.36;97786.16;4994213;28;20057;-80
2024/02/01 00:11:03;;;;;;;11.25;6.53;;;;;;;9.41;69.63;97788.75;4994610;28;20062;-80
2024/02/01 00:13:31;;;;;;;11.25;6.63;;;;;;;9.42;69.64;97779.16;4993962;28;20054;-80
2024/02/01 00:15:59;;;;;;;11.82;7.40;;;;;;;9.42;69.52;97795.63;4994044;28;20119;-80
2024/02/01 00:18:29;;;;;;;13.00;7.57;;;;;;;9.41;69.44;97801.78;4994174;28;20054;-80
2024/02/01 00:20:58;;;;;;;12.23;7.13;;;;;;;9.41;69.48;97800.97;4993621;28;20133;-79
2024/02/01 00:23:27;;;;;;;11.95;7.28;;;;;;;9.40;69.64;97810.56;4993739;28;20100;-80
2024/02/01 00:25:55;;;;;;;12.48;7.50;;;;;;;9.40;69.63;97801.91;4993674;28;20137;-80
2024/02/01 00:28:24;;;;;;;9.85;6.70;;;;;;;9.40;69.79;97797.53;4993541;28;20065;-80
2024/02/01 00:30:52;;;;;;;11.73;7.10;;;;;;;9.42;69.63;97803.44;4993890;28;20050;-80
2024/02/01 00:33:21;;;;;;;13.82;7.03;;;;;;;9.43;69.68;97794.63;4993745;28;20050;-80
2024/02/01 00:35:51;;;;;;;7.65;5.88;;;;;;;9.43;69.40;97794.63;4993833;28;20054;-80
2024/02/01 00:38:19;;;;;;;9.75;6.72;;;;;;;9.43;69.43;97784.22;4993522;28;20050;-80
2024/02/01 00:40:47;;;;;;;9.52;6.25;;;;;;;9.44;69.16;97783.25;4993620;28;20054;-80
2024/02/01 00:43:16;;;;;;;9.13;6.03;;;;;;;9.44;69.19;97775.44;4993870;28;20054;-80
2024/02/01 00:45:44;;;;;;;7.20;5.85;;;;;;;9.44;69.22;97772.81;4994425;28;20444;-80
2024/02/01 00:48:13;;;;;;;9.10;6.57;;;;;;;9.45;69.18;97777.06;4993635;28;20062;-80
2024/02/01 00:50:41;;;;;;;9.48;6.57;;;;;;;9.44;69.29;97759.78;4993639;28;20053;-80
2024/02/01 00:53:11;;;;;;;10.23;6.50;;;;;;;9.44;69.42;97765.00;4993723;28;20405;-80
2024/02/01 00:55:41;;;;;;;10.27;6.75;;;;;;;9.43;69.88;97768.59;4994230;28;20047;-80
2024/02/01 00:58:10;;;;;;;9.85;6.55;;;;;;;9.45;69.45;97763.25;4993849;28;20058;-80
2024/02/01 01:00:38;;;;;;;7.55;5.57;;;;;;;9.45;69.50;97766.66;4993796;28;20052;-80
2024/02/01 01:03:07;;;;;;;10.00;6.85;;;;;;;9.46;69.60;97763.06;4993640;28;20050;-80
2024/02/01 01:05:36;;;;;;;8.85;6.05;;;;;;;9.46;69.72;97765.69;4994101;28;20153;-80
2024/02/01 01:08:05;;;;;;;7.85;5.97;;;;;;;9.46;69.27;97755.25;4995474;28;20492;-80
2024/02/01 01:10:35;;;;;;;8.77;5.60;;;;;;;9.50;69.56;97763.63;5014610;28;20093;-81
2024/02/01 01:13:03;;;;;;;8.98;5.40;;;;;;;9.53;69.21;97759.91;5013569;28;20042;-81
2024/02/01 01:15:31;;;;;;;10.25;5.50;;;;;;;9.52;69.02;97763.47;5006288;28;20058;-81
2024/02/01 01:18:00;;;;;;;11.77;5.43;;;;;;;9.53;68.91;97762.50;5010797;28;20066;-81
2024/02/01 01:20:28;;;;;;;8.07;4.70;;;;;;;9.55;68.87;97760.56;5014200;28;20069;-81
2024/02/01 01:22:57;;;;;;;5.70;4.28;;;;;;;9.53;68.24;97752.91;5010406;28;20129;-80
2024/02/01 01:25:25;;;;;;;8.70;4.38;;;;;;;9.55;68.24;97750.16;4998813;28;20047;-80
2024/02/01 01:27:55;;;;;;;4.70;4.15;;;;;;;9.53;67.81;97752.91;4997945;28;20054;-80
2024/02/01 01:30:23;;;;;;;5.25;4.07;;;;;;;9.54;67.79;97744.13;4997784;28;20586;-80
2024/02/01 01:32:52;;;;;;;7.85;4.40;;;;;;;9.55;67.70;97744.94;4997212;28;20137;-80
2024/02/01 01:35:20;;;;;;;6.85;4.05;;;;;;;9.53;68.00;97745.06;4997844;28;20050;-80
2024/02/01 01:37:48;;;;;;;6.28;4.55;;;;;;;9.56;67.81;97749.19;5000089;28;20121;-81
2024/02/01 01:40:17;;;;;;;7.47;4.05;;;;;;;9.57;67.98;97756.03;4998554;28;20065;-80
2024/02/01 01:42:46;;;;;;;10.55;4.80;;;;;;;9.56;68.01;97757.81;4997591;28;20057;-80
2024/02/01 01:45:16;;;;;;;7.40;4.55;;;;;;;9.54;68.26;97753.72;4997877;28;20054;-80
2024/02/01 01:47:45;;;;;;;8.95;5.47;;;;;;;9.56;68.16;97757.00;4997692;28;20474;-80
2024/02/01 01:50:14;;;;;;;7.57;4.78;;;;;;;9.54;68.28;97758.94;4997304;28;20091;-80
2024/02/01 01:52:45;;;;;;;9.88;4.85;;;;;;;9.54;68.52;97766.75;4996759;28;20061;-80
2024/02/01 01:55:14;;;;;;;9.23;5.90;;;;;;;9.53;68.45;97752.06;4996572;28;20052;-80
2024/02/01 01:57:43;;;;;;;8.15;5.85;;;;;;;9.49;68.49;97762.81;4996718;28;20108;-80
2024/02/01 02:00:14;;;;;;;8.25;5.53;;;;;;;9.46;68.75;97765.69;4996790;28;20476;-80
2024/02/01 02:02:45;;;;;;;9.13;5.93;;;;;;;9.43;68.78;97768.59;4996868;28;20133;-80
2024/02/01 02:05:13;;;;;;;8.50;5.65;;;;;;;9.39;68.67;97767.25;4996136;28;20051;-80
2024/02/01 02:07:42;;;;;;;6.93;5.63;;;;;;;9.36;69.07;97771.91;4995968;28;20137;-80
2024/02/01 02:10:14;;;;;;;8.55;5.93;;;;;;;9.33;69.02;97761.78;4996099;28;20419;-80
2024/02/01 02:12:44;;;;;;;10.88;5.53;;;;;;;9.29;69.20;97766.47;4995849;28;20518;-80
2024/02/01 02:15:15;;;;;;;8.25;5.30;;;;;;;9.24;69.20;97766.09;4995773;28;20424;-80
2024/02/01 02:17:46;;;;;;;9.13;6.13;;;;;;;9.20;69.72;97777.75;4996043;28;20057;-80
2024/02/01 02:20:17;;;;;;;8.13;6.60;;;;;;;9.19;69.79;97776.13;4995815;28;20109;-80
2024/02/01 02:22:54;;;;;;;8.70;6.25;;;;;;;9.18;69.95;97785.72;4996067;28;20145;-80
2024/02/01 02:25:22;;;;;;;10.80;7.20;;;;;;;9.17;70.01;97778.84;4995761;28;20138;-80
2024/02/01 02:27:50;;;;;;;9.10;6.70;;;;;;;9.16;70.04;97782.44;4995603;28;20113;-80
2024/02/01 02:30:19;;;;;;;9.40;6.40;;;;;;;9.14;70.11;97776.56;4995233;28;20467;-80
2024/02/01 02:32:47;;;;;;;9.95;6.32;;;;;;;9.14;70.25;97780.91;4995373;28;20058;-80
2024/02/01 02:35:16;;;;;;;10.30;7.28;;;;;;;9.13;70.28;97779.28;4995488;28;20438;-80
2024/02/01 02:37:46;;;;;;;10.73;6.93;;;;;;;9.11;70.43;97771.63;4995391;28;20050;-80
2024/02/01 02:40:18;;;;;;;15.10;7.65;;;;;;;9.10;70.97;97774.38;4995569;28;20042;-80
2024/02/01 02:42:47;;;;;;;11.85;7.57;;;;;;;9.08;70.60;97764.91;4996085;28;20054;-80
2024/02/01 02:45:16;;;;;;;14.10;7.70;;;;;;;9.08;70.61;97767.53;4995737;28;20046;-80
2024/02/01 02:47:46;;;;;;;9.23;7.22;;;;;;;9.07;70.76;97767.66;4994978;28;20053;-80
2024/02/01 02:50:15;;;;;;;12.45;7.18;;;;;;;9.05;70.72;97765.22;4995241;28;20134;-80
2024/02/01 02:52:45;;;;;;;11.43;7.95;;;;;;;9.03;70.90;97756.72;4995230;28;20065;-80
2024/02/01 02:55:14;;;;;;;12.13;7.85;;;;;;;9.03;70.78;97772.34;4995172;28;20428;-80
2024/02/01 02:57:44;;;;;;;11.30;7.30;;;;;;;9.02;70.90;97765.50;4995287;28;20428;-80
2024/02/01 03:00:18;;;;;;;8.88;7.25;;;;;;;9.01;70.80;97768.25;4995001;28;20046;-80
2024/02/01 03:02:49;;;;;;;9.05;6.15;;;;;;;9.01;70.89;97778.66;4995175;28;20078;-80
2024/02/01 03:05:18;;;;;;;10.10;6.68;;;;;;;9.01;70.75;97787.28;4995206;28;20508;-80
2024/02/01 03:07:47;;;;;;;9.63;8.05;;;;;;;9.00;70.72;97780.44;4994902;28;20055;-80
2024/02/01 03:10:17;;;;;;;11.20;7.18;;;;;;;9.01;70.63;97774.28;4994519;28;20133;-80
2024/02/01 03:12:47;;;;;;;14.55;8.07;;;;;;;9.00;70.64;97783.03;4994927;28;20117;-80
2024/02/01 03:15:16;;;;;;;8.85;6.78;;;;;;;8.98;70.71;97784.94;4994867;28;20560;-80
2024/02/01 03:17:45;;;;;;;11.27;7.15;;;;;;;8.97;70.56;97782.50;4995227;28;20057;-80
2024/02/01 03:20:22;;;;;;;9.18;6.80;;;;;;;8.94;70.84;97785.38;4994702;28;20424;-79
2024/02/01 03:22:54;;;;;;;9.52;7.32;;;;;;;8.93;70.67;97784.56;4995043;28;20046;-80
2024/02/01 03:25:28;;;;;;;9.82;7.03;;;;;;;8.89;70.68;97778.00;4995084;28;20050;-80
2024/02/01 03:28:01;;;;;;;11.63;8.20;;;;;;;8.86;70.71;97796.50;4994782;28;20050;-80
2024/02/01 03:30:31;;;;;;;11.77;7.18;;;;;;;8.82;70.79;97788.16;4994325;28;20567;-80
2024/02/01 03:33:03;;;;;;;9.85;7.32;;;;;;;8.81;70.93;97786.53;4994697;28;20054;-80
2024/02/01 03:35:32;;;;;;;9.40;6.63;;;;;;;8.82;70.79;97785.56;4994481;28;20141;-80
2024/02/01 03:38:01;;;;;;;8.60;6.60;;;;;;;8.81;71.23;97785.69;4994427;28;20050;-80
2024/02/01 03:40:31;;;;;;;10.30;7.78;;;;;;;8.85;71.27;97780.09;4993754;28;20058;-80
2024/02/01 03:43:01;;;;;;;10.55;7.40;;;;;;;8.84;71.12;97768.03;4993848;28;20583;-81
2024/02/01 03:45:30;;;;;;;11.82;7.72;;;;;;;8.83;71.13;97762.94;5015498;28;20085;-80
2024/02/01 03:47:58;;;;;;;9.85;6.47;;;;;;;8.81;71.17;97754.47;5014028;28;20153;-80
2024/02/01 03:50:28;;;;;;;10.85;7.32;;;;;;;8.81;71.11;97749.25;5014873;28;20057;-80
2024/02/01 03:52:56;;;;;;;9.85;6.97;;;;;;;8.81;71.33;97736.25;5002078;28;20046;-80
2024/02/01 03:55:24;;;;;;;9.65;7.32;;;;;;;8.83;71.18;97744.75;4994897;28;20054;-81
2024/02/01 03:57:52;;;;;;;14.30;7.53;;;;;;;8.83;71.02;97745.59;4994726;28;20105;-80
2024/02/01 04:00:30;;;;;;;8.80;5.88;;;;;;;8.84;71.71;97746.41;4994197;28;20416;-80
2024/02/01 04:03:03;;;;;;;10.82;7.65;;;;;;;8.85;71.19;97759.28;4993876;28;20057;-80
2024/02/01 04:05:36;;;;;;;10.80;7.18;;;;;;;8.84;71.04;97757.63;4993801;28;20058;-80
2024/02/01 04:08:07;;;;;;;9.75;6.75;;;;;;;8.83;70.95;97757.75;4993328;28;20046;-80
2024/02/01 04:10:35;;;;;;;10.07;7.05;;;;;;;8.84;71.14;97756.81;4993673;28;20432;-80
2024/02/01 04:13:05;;;;;;;9.82;6.95;;;;;;;8.84;71.43;97755.00;4993973;28;20054;-80
2024/02/01 04:15:35;;;;;;;8.32;6.07;;;;;;;8.85;70.90;97748.88;4993751;28;20046;-80
2024/02/01 04:18:05;;;;;;;9.68;6.70;;;;;;;8.85;70.91;97748.88;4993902;28;20124;-80
2024/02/01 04:20:33;;;;;;;8.82;6.05;;;;;;;8.87;70.63;97757.31;4993796;28;20109;-80
2024/02/01 04:23:02;;;;;;;8.23;5.55;;;;;;;8.89;70.76;97762.38;4993451;28;20051;-80
2024/02/01 04:25:30;;;;;;;9.60;6.40;;;;;;;8.90;70.83;97771.84;4993801;28;20054;-80
2024/02/01 04:27:59;;;;;;;10.48;6.90;;;;;;;8.92;70.62;97759.53;4993519;28;20401;-80
2024/02/01 04:30:28;;;;;;;9.55;6.75;;;;;;;8.90;70.50;97753.63;4993749;28;20164;-80
2024/02/01 04:32:58;;;;;;;10.88;6.63;;;;;;;8.90;70.33;97760.59;4993532;28;20092;-80
2024/02/01 04:35:28;;;;;;;7.93;5.72;;;;;;;8.89;70.40;97764.19;4993516;28;20109;-80
2024/02/01 04:37:56;;;;;;;7.70;5.93;;;;;;;8.87;70.60;97761.72;4993455;28;20054;-80
2024/02/01 04:40:25;;;;;;;10.07;6.30;;;;;;;8.87;70.51;97761.72;4993391;28;20050;-80
2024/02/01 04:42:56;;;;;;;12.38;5.97;;;;;;;8.88;70.41;97758.16;4993107;28;20050;-80
2024/02/01 04:45:24;;;;;;;10.55;5.93;;;;;;;8.90;70.37;97756.25;4993381;28;20527;-80
2024/02/01 04:47:52;;;;;;;13.18;7.13;;;;;;;8.89;70.25;97751.16;4993125;28;20121;-80
2024/02/01 04:50:22;;;;;;;9.40;5.75;;;;;;;8.90;70.09;97751.03;4993337;28;20516;-80
2024/02/01 04:52:51;;;;;;;9.20;6.20;;;;;;;8.88;70.60;97747.75;4995290;28;20046;-80
2024/02/01 04:55:21;;;;;;;6.90;5.47;;;;;;;8.89;70.67;97744.19;4997351;28;20132;-80
2024/02/01 04:57:49;;;;;;;8.95;5.78;;;;;;;8.90;70.99;97730.22;4997043;28;20069;-80
2024/02/01 05:00:18;;;;;;;8.98;6.10;;;;;;;8.94;70.78;97734.16;4997103;28;20077;-80
2024/02/01 05:02:47;;;;;;;7.40;6.38;;;;;;;8.96;70.62;97734.81;4997151;28;20050;-80
2024/02/01 05:05:17;;;;;;;10.05;6.00;;;;;;;8.99;70.74;97734.56;4997122;28;20054;-80
2024/02/01 05:07:46;;;;;;;9.65;6.93;;;;;;;8.99;70.17;97744.97;5000816;28;20094;-80
2024/02/01 05:10:14;;;;;;;9.05;6.07;;;;;;;9.01;70.44;97743.03;5000791;28;20503;-80
2024/02/01 05:12:43;;;;;;;8.65;5.20;;;;;;;9.02;70.50;97744.66;5003956;28;20054;-80
2024/02/01 05:15:12;;;;;;;7.45;5.93;;;;;;;9.01;70.51;97743.03;5015807;28;20053;-80
2024/02/01 05:17:41;;;;;;;13.38;5.68;;;;;;;9.03;70.58;97740.28;5011671;28;20612;-80
2024/02/01 05:20:11;;;;;;;9.32;5.45;;;;;;;9.02;70.31;97738.66;4999611;28;20073;-80
2024/02/01 05:22:39;;;;;;;7.78;4.63;;;;;;;9.01;70.21;97737.84;4999585;28;20483;-80
2024/02/01 05:25:15;;;;;;;6.28;4.43;;;;;;;9.00;69.97;97736.19;4998830;28;20050;-80
2024/02/01 05:27:50;;;;;;;5.25;4.35;;;;;;;9.00;70.08;97744.00;4997478;28;20065;-80
2024/02/01 05:30:20;;;;;;;7.32;5.00;;;;;;;8.99;69.93;97750.16;4997973;28;20054;-80
2024/02/01 05:32:52;;;;;;;11.95;5.85;;;;;;;8.98;69.95;97745.09;4998075;28;20078;-80
2024/02/01 05:35:26;;;;;;;7.60;5.03;;;;;;;8.98;70.37;97747.69;4997889;28;20087;-80
2024/02/01 05:37:55;;;;;;;5.60;4.13;;;;;;;8.97;70.20;97741.69;4997719;28;20526;-80
2024/02/01 05:40:24;;;;;;;6.63;4.80;;;;;;;8.96;70.69;97745.22;4997605;28;20050;-80
2024/02/01 05:42:53;;;;;;;6.57;4.85;;;;;;;8.97;70.65;97739.09;5013673;28;20517;-80
2024/02/01 05:45:22;;;;;;;10.73;5.30;;;;;;;8.96;70.76;97744.41;5014481;28;20141;-79
2024/02/01 05:47:51;;;;;;;7.07;4.65;;;;;;;8.92;71.40;97738.69;5000747;28;20096;-78
2024/02/01 05:50:19;;;;;;;8.63;4.80;;;;;;;8.92;71.62;97733.50;4999305;28;20082;-77
2024/02/01 05:52:47;;;;;;;6.57;5.00;;;;;;;8.92;71.57;97733.50;5017820;28;20072;-79
2024/02/01 05:55:14;;;;;;;6.32;4.20;;;;;;;8.90;71.88;97732.81;5014406;28;20459;-78
2024/02/01 05:57:44;;;;;;;8.60;4.55;;;;;;;8.91;72.04;97726.63;5021536;28;20070;-78
2024/02/01 06:00:13;;;;;;;6.07;4.53;;;;;;;8.92;72.23;97732.66;5002933;28;20050;-78
2024/02/01 06:02:41;;;;;;;6.50;5.28;;;;;;;8.93;72.28;97740.31;5021453;28;20054;-79
2024/02/01 06:05:09;;;;;;;8.20;5.30;;;;;;;8.89;72.49;97746.78;5020353;28;20046;-77
2024/02/01 06:07:37;;;;;;;7.03;4.82;;;;;;;8.87;72.76;97743.50;5022472;28;20049;-79
2024/02/01 06:10:07;;;;;;;5.88;4.53;;;;;;;8.84;72.90;97739.41;5008474;28;20103;-79
2024/02/01 06:12:37;;;;;;;7.90;5.00;;;;;;;8.82;73.16;97735.31;5003944;28;20058;-78
2024/02/01 06:15:07;;;;;;;8.32;4.97;;;;;;;8.82;73.40;97743.13;5013556;28;20057;-80
2024/02/01 06:17:35;;;;;;;9.07;5.97;;;;;;;8.82;73.11;97743.13;5008749;28;20058;-79
2024/02/01 06:20:06;;;;;;;7.70;5.53;;;;;;;8.79;73.28;97743.38;5007049;28;20110;-80
2024/02/01 06:22:36;;;;;;;6.53;4.55;;;;;;;8.77;73.33;97740.13;5002699;28;20056;-78
2024/02/01 06:25:05;;;;;;;12.50;4.53;;;;;;;8.78;73.57;97744.34;4994098;28;20053;-78
2024/02/01 06:27:32;;;;;;;5.63;4.50;;;;;;;8.79;73.33;97745.97;4993796;28;20490;-78
2024/02/01 06:30:00;;;;;;;6.05;5.22;;;;;;;8.79;73.62;97748.59;4993289;28;20042;-78
2024/02/01 06:32:30;;;;;;;6.97;4.68;;;;;;;8.80;73.77;97750.25;4993599;28;20417;-78
2024/02/01 06:35:05;;;;;;;8.15;4.80;;;;;;;8.80;73.73;97761.47;4992907;28;20505;-78
2024/02/01 06:37:35;;;;;;;6.15;4.93;;;;;;;8.83;73.66;97757.75;4993402;28;20538;-78
2024/02/01 06:40:26;;;;;;;5.22;3.95;;;;;;;8.83;73.60;97755.16;4994782;28;20455;-79
2024/02/01 06:43:08;;;;;;;9.82;4.60;;;;;;;8.82;73.61;97763.94;4995006;28;20401;-78
2024/02/01 06:45:44;;;;;;;6.32;4.53;;;;;;;8.82;73.79;97762.13;4995091;28;20061;-78
2024/02/01 06:48:13;;;;;;;6.30;4.20;;;;;;;8.85;74.00;97768.84;5008951;28;20050;-78
2024/02/01 06:50:54;;;;;;;5.55;4.28;;;;;;;8.84;73.91;97768.03;5016405;28;20054;-78
2024/02/01 06:53:23;;;;;;;7.53;5.05;;;;;;;8.81;73.78;97772.69;5016055;28;20050;-79
2024/02/01 06:56:06;;;;;;;6.35;4.93;;;;;;;8.79;74.13;97779.81;5015326;28;20108;-79
2024/02/01 06:58:47;;;;;;;5.82;4.80;;;;;;;8.79;74.10;97779.81;4996634;28;20587;-79
2024/02/01 07:01:24;;;;;;;5.97;4.57;;;;;;;8.78;73.87;97778.19;4995438;28;20468;-78
2024/02/01 07:04:07;;;;;;;7.15;4.88;;;;;;;8.79;74.33;97785.00;4995130;28;20439;-78
2024/02/01 07:06:35;;;;;;;;;;;;;;;8.82;74.34;97785.56;4996533;28;20042;-78
2024/02/01 07:12:09;;;;;;;6.07;4.63;;;;;;;8.84;74.52;97788.03;4953987;29;20509;-78
2024/02/01 07:14:39;;;;;;;6.50;4.80;;;;;;;8.86;74.84;97786.09;4990934;28;20074;-79
2024/02/01 07:19:55;;;;;;;8.80;5.10;;;;;;;8.88;74.32;97794.59;4995004;28;20050;-78
2024/02/01 07:22:39;;;;;;;5.90;4.72;;;;;;;8.87;74.44;97787.72;4996987;28;20113;-78
2024/02/01 07:25:11;;;;;;;9.13;5.70;;;;;;;8.88;74.14;97778.97;4994454;28;20054;-78
2024/02/01 07:58:07;;;;;;;9.45;4.00;;;;;;;8.57;75.45;97774.00;5008694;28;20068;-78
2024/02/01 08:00:45;;;;;;;11.90;4.38;;;;;;;8.58;75.68;97782.59;4994048;28;20419;-78
2024/02/01 08:03:22;;;;;;;7.68;4.20;;;;;;;8.54;75.34;97781.25;4993950;28;20082;-78
2024/02/01 08:08:37;;;;;;;5.65;3.20;;;;;;;8.54;75.83;97781.25;4993453;28;20042;-79
2024/02/01 08:11:05;;;;;;;6.88;4.15;;;;;;;8.52;75.59;97788.38;4993436;28;20121;-78
2024/02/01 08:13:33;;;;;;;5.90;4.10;;;;;;;8.48;75.93;97780.00;4993303;28;20050;-78
2024/02/01 08:16:02;;;;;;;6.22;3.70;;;;;;;8.48;76.28;97777.41;4993659;28;20446;-78
2024/02/01 08:18:34;;;;;;;7.15;4.22;;;;;;;8.51;76.32;97790.16;4993118;28;20137;-78
2024/02/01 08:21:04;;;;;;;5.68;4.10;;;;;;;8.52;76.41;97788.38;4992836;28;20066;-78
2024/02/01 08:23:33;;;;;;;7.53;4.90;;;;;;;8.50;76.31;97800.69;4992970;28;20066;-78
2024/02/01 08:26:04;;;;;;;8.75;5.28;;;;;;;8.45;76.68;97793.31;4994169;28;20046;-78
2024/02/01 08:28:33;;;;;;;8.25;5.97;;;;;;;8.41;76.86;97795.34;4993058;28;20060;-78
2024/02/01 08:31:02;;;;;;;9.30;4.70;;;;;;;8.42;77.08;97798.78;4993007;28;20104;-78
2024/02/01 08:33:30;;;;;;;6.78;4.70;;;;;;;8.39;77.16;97805.03;4993096;28;20046;-78
2024/02/01 08:35:58;;;;;;;8.02;5.55;;;;;;;8.40;77.61;97811.91;4993270;28;20054;-78
2024/02/01 08:38:28;;;;;;;4.50;3.83;;;;;;;8.42;77.63;97802.19;4993004;28;20072;-79
2024/02/01 08:40:56;;;;;;;4.95;3.60;;;;;;;8.43;77.39;97811.63;4993106;28;20078;-78
2024/02/01 08:43:25;;;;;;;6.28;3.85;;;;;;;8.44;77.88;97812.47;4994192;28;20156;-78
2024/02/01 08:45:52;;;;;;;8.27;4.32;;;;;;;8.44;77.69;97818.50;4993143;28;20312;-78
2024/02/01 08:48:20;;;;;;;6.53;3.70;;;;;;;8.44;77.57;97817.69;4993286;28;20050;-78
2024/02/01 08:50:49;;;;;;;5.05;3.78;;;;;;;8.42;77.65;97814.38;4993348;28;20054;-78
2024/02/01 08:53:19;;;;;;;6.03;4.35;;;;;;;8.44;77.69;97809.88;4992311;28;20534;-78
2024/02/01 08:55:51;;;;;;;4.93;3.40;;;;;;;8.43;77.55;97811.63;4992853;28;20595;-78
2024/02/01 08:58:20;;;;;;;4.82;3.92;;;;;;;8.42;77.64;97811.78;4992707;28;20452;-78
2024/02/01 09:00:50;;;;;;;9.07;4.18;;;;;;;8.40;77.94;97819.72;4992625;28;20241;-78
2024/02/01 09:03:19;;;;;;;5.50;4.25;;;;;;;8.41;78.02;97823.13;4992834;28;20459;-78
2024/02/01 09:05:47;;;;;;;8.15;4.18;;;;;;;8.41;77.82;97820.53;4993570;28;20686;-78
2024/02/01 09:08:19;;;;;;;6.40;4.07;;;;;;;8.40;78.01;97821.47;4993088;28;20050;-78
2024/02/01 09:10:51;;;;;;;5.35;3.55;;;;;;;8.40;77.94;97816.28;4992679;28;20133;-78
2024/02/01 09:13:20;;;;;;;4.23;3.30;;;;;;;8.42;78.15;97817.00;4992939;28;20061;-78
2024/02/01 09:15:49;;;;;;;6.45;4.82;;;;;;;8.41;78.26;97823.94;4992720;28;20371;-79
2024/02/01 09:18:17;;;;;;;9.27;6.18;;;;;;;8.41;78.12;97825.72;4993335;28;20145;-77
2024/02/01 09:20:45;;;;;;;9.68;6.07;;;;;;;8.36;78.49;97844.31;4992381;28;20057;-78
2024/02/01 09:23:13;;;;;;;8.30;5.28;;;;;;;8.35;78.86;97839.25;4992533;28;20428;-78
2024/02/01 09:25:41;;;;;;;5.88;4.97;;;;;;;8.35;78.89;97844.44;4992715;28;20129;-78
2024/02/01 09:28:12;;;;;;;9.55;4.70;;;;;;;8.35;79.14;97850.50;4993020;28;20057;-78
2024/02/01 09:30:45;;;;;;;9.30;5.32;;;;;;;8.38;79.31;97841.59;4992995;28;20076;-78
2024/02/01 09:33:14;;;;;;;;;;;;;;;8.39;79.23;97851.03;4992599;28;20054;-78
2024/02/01 09:35:43;;;;;;;8.68;5.70;;;;;;;8.34;78.63;97851.44;4992234;28;19928;-78
2024/02/01 09:38:11;;;;;;;9.45;6.10;;;;;;;8.26;79.04;97856.47;4992436;28;20516;-78
2024/02/01 09:40:41;;;;;;;7.50;5.28;;;;;;;8.25;79.49;97860.06;4995745;28;20112;-78
2024/02/01 09:43:17;;;;;;;8.00;5.05;;;;;;;8.24;79.49;97859.25;4996159;28;20054;-78
2024/02/01 09:45:45;;;;;;;6.38;4.43;;;;;;;8.21;79.75;97864.69;4996179;28;20062;-78
2024/02/01 09:48:17;;;;;;;7.43;4.78;;;;;;;8.25;79.93;97865.25;4995802;28;20057;-78
2024/02/01 09:50:50;;;;;;;6.20;5.40;;;;;;;8.27;80.14;97858.13;4995995;28;20066;-78
2024/02/01 09:53:21;;;;;;;6.38;4.47;;;;;;;8.27;79.78;97872.94;4995543;28;20499;-78
2024/02/01 09:55:50;;;;;;;11.13;5.53;;;;;;;8.21;79.85;97869.88;4995777;28;20500;-78
2024/02/01 09:58:18;;;;;;;7.93;5.30;;;;;;;8.17;80.24;97868.50;4996098;28;20060;-79
2024/02/01 10:00:46;;;;;;;9.18;5.65;;;;;;;8.16;80.44;97872.09;4995669;28;20050;-78
2024/02/01 10:03:22;;;;;;;6.15;4.72;;;;;;;8.19;80.64;97871.00;4999019;28;20073;-78
2024/02/01 10:05:51;;;;;;;6.80;4.38;;;;;;;8.22;80.75;97876.75;5005623;28;20061;-79
2024/02/01 10:08:19;;;;;;;6.35;3.60;;;;;;;8.28;80.67;97877.16;5005722;28;20050;-78
2024/02/01 10:10:48;;;;;;;4.65;3.90;;;;;;;8.32;80.59;97875.94;4996006;28;20173;-78
2024/02/01 10:13:18;;;;;;;4.22;3.83;;;;;;;8.36;80.77;97877.31;4995483;28;20086;-78
2024/02/01 10:15:47;;;;;;;5.35;3.85;;;;;;;8.42;80.75;97879.41;4996058;28;20162;-78
2024/02/01 10:18:17;;;;;;;5.50;3.45;;;;;;;8.43;80.75;97868.03;4996100;28;20051;-79
2024/02/01 10:20:48;;;;;;;5.68;4.20;;;;;;;8.44;80.93;97869.69;4995506;28;20058;-78
2024/02/01 10:23:16;;;;;;;5.80;3.70;;;;;;;8.44;80.87;97872.28;4995386;28;20077;-78
2024/02/01 10:25:45;;;;;;;4.95;3.67;;;;;;;8.47;80.98;97864.19;4995004;28;20074;-78
2024/02/01 10:28:16;;;;;;;4.35;3.63;;;;;;;8.49;80.86;97862.28;4995245;28;20093;-78
2024/02/01 10:30:45;;;;;;;4.90;3.50;;;;;;;8.48;80.78;97860.63;4995170;28;20050;-78
2024/02/01 10:33:14;;;;;;;5.90;3.88;;;;;;;8.50;81.23;97863.09;4994882;28;20100;-78
2024/02/01 10:35:43;;;;;;;5.53;3.40;;;;;;;8.50;81.05;97858.72;4997909;28;20174;-78
2024/02/01 10:38:15;;;;;;;8.32;6.80;;;;;;;8.46;80.83;97857.34;5016292;28;20050;-79
2024/02/01 10:40:58;;;;;;;9.02;6.88;;;;;;;8.46;81.81;97862.53;5015913;28;20061;-78
2024/02/01 10:43:27;;;;;;;8.35;7.10;;;;;;;8.49;81.33;97856.25;5015245;28;20064;-78
2024/02/01 10:46:06;;;;;;;10.95;9.05;;;;;;;8.51;81.90;97849.97;5012851;28;20054;-78
2024/02/01 10:48:36;;;;;;;7.82;6.28;;;;;;;8.53;81.84;97847.22;5011754;28;20144;-79
2024/02/01 10:51:10;;;;;;;8.15;5.72;;;;;;;8.55;81.76;97842.69;5010179;28;20050;-78
2024/02/01 10:53:41;;;;;;;7.07;5.13;;;;;;;8.57;81.52;97844.22;4998054;28;20050;-78
2024/02/01 10:56:13;;;;;;;5.97;3.70;;;;;;;8.60;81.38;97849.13;4996448;28;20069;-78
2024/02/01 10:58:46;;;;;;;8.15;6.20;;;;;;;8.63;81.28;97848.84;4995269;28;20054;-78
2024/02/01 11:01:15;;;;;;;;;;;;;;;8.66;81.75;97851.19;4995552;28;20054;-78
2024/02/01 11:03:43;;;;;;;5.00;4.18;;;;;;;8.68;80.84;97839.81;4995072;28;19992;-78
2024/02/01 11:06:12;;;;;;;4.93;3.60;;;;;;;8.70;81.01;97843.09;4995440;28;20105;-78
2024/02/01 11:08:41;;;;;;;5.93;3.90;;;;;;;8.74;81.12;97849.66;4995241;28;20081;-78
2024/02/01 11:11:16;;;;;;;4.28;3.67;;;;;;;8.75;80.65;97840.91;4994381;28;20101;-78
2024/02/01 11:13:47;;;;;;;3.90;3.00;;;;;;;8.71;81.00;97835.16;5007530;28;20045;-78
2024/02/01 11:16:15;;;;;;;7.00;3.97;;;;;;;8.72;80.83;97841.16;5016366;28;20070;-79
2024/02/01 11:18:54;;;;;;;3.15;2.35;;;;;;;8.72;81.28;97847.19;5015616;28;20050;-79
2024/02/01 11:21:30;;;;;;;2.40;2.20;;;;;;;8.72;81.65;97844.59;4998965;28;20566;-79
2024/02/01 11:24:07;;;;;;;2.78;1.90;;;;;;;8.72;81.46;97833.38;4994514;28;20086;-79
2024/02/01 11:26:40;;;;;;;3.40;2.10;;;;;;;8.73;81.52;97840.22;4994591;28;20054;-79
2024/02/01 11:29:09;;;;;;;3.00;2.70;;;;;;;8.74;81.37;97836.66;4994196;28;20054;-79
2024/02/01 11:31:37;;;;;;;5.32;2.78;;;;;;;8.75;81.46;97833.09;4994501;28;20061;-79
2024/02/01 11:34:15;;;;;;;3.30;2.30;;;;;;;8.77;81.64;97839.00;4994562;28;20124;-79
2024/02/01 11:36:44;;;;;;;5.18;2.25;;;;;;;8.80;81.78;97834.31;4994247;28;20050;-79
2024/02/01 11:39:13;;;;;;;3.30;2.15;;;;;;;8.86;81.68;97840.75;4993957;28;20082;-79
2024/02/01 11:41:46;;;;;;;2.08;1.88;;;;;;;8.87;81.35;97837.16;4994103;28;20046;-79
2024/02/01 11:44:14;;;;;;;2.15;1.75;;;;;;;8.87;81.41;97834.56;4993805;28;20054;-79
2024/02/01 11:46:45;;;;;;;1.73;1.63;;;;;;;8.86;81.37;97838.97;4993939;28;20076;-79
2024/02/01 11:49:17;;;;;;;2.83;1.70;;;;;;;8.89;81.86;97832.66;4993644;28;20480;-79
2024/02/01 11:51:55;;;;;;;1.90;1.80;;;;;;;8.93;81.93;97833.19;4994152;28;20046;-79
2024/02/01 11:54:27;;;;;;;1.45;1.27;;;;;;;8.94;81.68;97837.41;4994328;28;20085;-79
2024/02/01 11:56:55;;;;;;;3.00;2.38;;;;;;;8.96;81.44;97838.09;4993993;28;20492;-79
2024/02/01 11:59:24;;;;;;;1.63;1.40;;;;;;;8.93;81.39;97836.63;4993852;28;20427;-79
2024/02/01 12:01:52;;;;;;;1.95;1.75;;;;;;;8.92;81.79;97841.94;4993357;28;20046;-79
2024/02/01 12:04:21;;;;;;;4.40;2.95;;;;;;;8.93;81.88;97831.41;4993883;28;20097;-79
2024/02/01 12:06:50;;;;;;;10.05;5.68;;;;;;;8.93;81.67;97830.59;4993972;28;20052;-79
2024/02/01 12:09:17;;;;;;;13.38;4.90;;;;;;;8.89;81.57;97827.44;4993404;28;20154;-79
2024/02/01 12:11:45;;;;;;;10.05;4.65;;;;;;;8.86;81.70;97833.75;4995022;28;20056;-79
2024/02/01 12:14:17;;;;;;;6.35;4.20;;;;;;;8.84;81.85;97827.06;4992961;28;20100;-79
2024/02/01 12:16:49;;;;;;;3.80;2.80;;;;;;;8.84;82.15;97827.88;4993737;28;20137;-79
2024/02/01 12:19:18;;;;;;;2.00;1.60;;;;;;;8.82;82.04;97816.78;4993130;28;20134;-79
2024/02/01 12:21:51;;;;;;;2.85;2.00;;;;;;;8.81;81.98;97814.31;4993239;28;20054;-79
2024/02/01 12:24:24;;;;;;;2.35;2.13;;;;;;;8.79;82.18;97822.28;5003561;28;20053;-79
2024/02/01 12:26:52;;;;;;;3.17;2.15;;;;;;;8.78;82.14;97809.41;5008821;28;20054;-79
2024/02/01 12:29:21;;;;;;;2.25;2.05;;;;;;;8.77;82.34;97810.38;5010417;28;20070;-79
2024/02/01 12:31:49;;;;;;;2.28;1.92;;;;;;;8.79;82.43;97814.47;4998848;28;20097;-79
2024/02/01 12:34:17;;;;;;;3.25;2.17;;;;;;;8.82;82.31;97810.75;4994345;28;20050;-79